USCGC Eagle — NRCB — position and weather

sailwx.info

Track history (hours):
 
Tides and Currents Weather Stations Pressure Air Temp Water Temp Dewpoint Dewpoint Depression Visibility Wind Speed Wind Dir Waves Ship Positions

USCGC Eagle (United States)

Training ship of US Coast Guard Academy, and only square-rigger in active service in the US armed services. Ex German ship Horst Wessel.

Ship's website: http://www.cga.edu/eagle/

Last reported at 2014-Sep-02 16:00 UTC. Time now 2014-Sep-03 02:31 UTC.
Position N 38°07' W 068°54'.

CURRENTLY 296.7 NM E OF OCEAN CITY INLET, MD. CRS 110 DEG, SPD 9.4 KTS

Date/timePositionNaut miles runAvg speedWind from/ knotsBaromVisibWave heightAir tempDewpointWater temp
2014-Sep-02 16:00N 38°07' W 068°54'84 7.0
2014-Sep-02 04:00N 39°27' W 069°22'12 8.4
2014-Sep-02 02:31N 39°39' W 069°17'187 6.2
2014-Aug-31 20:15N 42°35' W 070°41'1 0.0
2014-Aug-29 17:25N 42°36' W 070°40'135 3.6
2014-Aug-28 04:15N 40°22' W 070°22'32121.0
2014-Aug-28 04:00N 40°23' W 069°40'3982.3
2014-Aug-28 03:31N 40°22' W 070°31'9 9.0
2014-Aug-28 02:33N 40°21' W 070°42'9 8.7
2014-Aug-28 01:33N 40°21' W 070°53'9 8.5
2014-Aug-28 00:28N 40°28' W 071°02'2 5.2
2014-Aug-28 00:00N 40°30' W 071°04'611.7
2014-Aug-27 23:31N 40°35' W 071°08'8 8.4
2014-Aug-27 22:33N 40°41' W 071°15'8 8.3
2014-Aug-27 21:33N 40°47' W 071°22'9 8.6
2014-Aug-27 20:33N 40°54' W 071°30'9 8.6
2014-Aug-27 19:33N 40°60' W 071°38'8 8.0
2014-Aug-27 18:33N 41°06' W 071°44'9 9.1
2014-Aug-27 17:33N 41°13' W 071°52'8 8.3
2014-Aug-27 16:33N 41°14' W 072°03'2849.0
2014-Aug-27 16:00N 40°57' W 071°34'3376.8
2014-Aug-27 15:33N 41°21' W 072°05'0 0.3
2014-Aug-27 14:32N 41°21' W 072°06'0 0.0
2014-Aug-27 13:26N 41°21' W 072°05'0 0.0
2014-Aug-27 12:33N 41°21' W 072°05'0 0.0
2014-Aug-27 11:33N 41°21' W 072°05'0 0.0
2014-Aug-27 10:33N 41°21' W 072°05'0 0.0
2014-Aug-27 09:33N 41°21' W 072°05'0 0.0
2014-Aug-27 08:33N 41°21' W 072°05'0 0.0
2014-Aug-27 07:33N 41°21' W 072°05'0 0.0
2014-Aug-27 06:33N 41°21' W 072°05'0 0.0
2014-Aug-27 05:33N 41°21' W 072°05'0 0.0
2014-Aug-27 04:33N 41°21' W 072°05'0 0.0
2014-Aug-27 03:33N 41°21' W 072°05'0 0.0
2014-Aug-27 02:33N 41°21' W 072°05'0 0.0
2014-Aug-27 01:33N 41°21' W 072°05'0 0.0
2014-Aug-27 00:33N 41°21' W 072°05'0 0.0
2014-Aug-26 23:33N 41°21' W 072°05'0 0.0
2014-Aug-26 22:33N 41°21' W 072°05'0 0.0
2014-Aug-26 21:33N 41°21' W 072°05'0 0.0
2014-Aug-26 20:33N 41°21' W 072°05'0 0.0
2014-Aug-26 19:33N 41°21' W 072°05'  
Track history (hours):
 
Tides and Currents Weather Stations Pressure Air Temp Water Temp Dewpoint Dewpoint Depression Visibility Wind Speed Wind Dir Waves Ship Positions

USCGC Eagle (United States)

Training ship of US Coast Guard Academy, and only square-rigger in active service in the US armed services. Ex German ship Horst Wessel.

Ship's website: http://www.cga.edu/eagle/

Last reported at 2014-Sep-02 16:00 UTC. Time now 2014-Sep-03 02:31 UTC.
Position N 38°07' W 068°54'.

CURRENTLY 296.7 NM E OF OCEAN CITY INLET, MD. CRS 110 DEG, SPD 9.4 KTS

Date/timePositionNaut miles runAvg speedWind from/ knotsBaromVisibWave heightAir tempDewpointWater temp
2014-Sep-02 16:00N 38°07' W 068°54'84 7.0
2014-Sep-02 04:00N 39°27' W 069°22'12 8.4
2014-Sep-02 02:31N 39°39' W 069°17'187 6.2
2014-Aug-31 20:15N 42°35' W 070°41'1 0.0
2014-Aug-29 17:25N 42°36' W 070°40'135 3.6
2014-Aug-28 04:15N 40°22' W 070°22'32121.0
2014-Aug-28 04:00N 40°23' W 069°40'3982.3
2014-Aug-28 03:31N 40°22' W 070°31'9 9.0
2014-Aug-28 02:33N 40°21' W 070°42'9 8.7
2014-Aug-28 01:33N 40°21' W 070°53'9 8.5
2014-Aug-28 00:28N 40°28' W 071°02'2 5.2
2014-Aug-28 00:00N 40°30' W 071°04'611.7
2014-Aug-27 23:31N 40°35' W 071°08'8 8.4
2014-Aug-27 22:33N 40°41' W 071°15'8 8.3
2014-Aug-27 21:33N 40°47' W 071°22'9 8.6
2014-Aug-27 20:33N 40°54' W 071°30'9 8.6
2014-Aug-27 19:33N 40°60' W 071°38'8 8.0
2014-Aug-27 18:33N 41°06' W 071°44'9 9.1
2014-Aug-27 17:33N 41°13' W 071°52'8 8.3
2014-Aug-27 16:33N 41°14' W 072°03'2849.0
2014-Aug-27 16:00N 40°57' W 071°34'3376.8
2014-Aug-27 15:33N 41°21' W 072°05'0 0.3
2014-Aug-27 14:32N 41°21' W 072°06'0 0.0
2014-Aug-27 13:26N 41°21' W 072°05'0 0.0
2014-Aug-27 12:33N 41°21' W 072°05'0 0.0
2014-Aug-27 11:33N 41°21' W 072°05'0 0.0
2014-Aug-27 10:33N 41°21' W 072°05'0 0.0
2014-Aug-27 09:33N 41°21' W 072°05'0 0.0
2014-Aug-27 08:33N 41°21' W 072°05'0 0.0
2014-Aug-27 07:33N 41°21' W 072°05'0 0.0
2014-Aug-27 06:33N 41°21' W 072°05'0 0.0
2014-Aug-27 05:33N 41°21' W 072°05'0 0.0
2014-Aug-27 04:33N 41°21' W 072°05'0 0.0
2014-Aug-27 03:33N 41°21' W 072°05'0 0.0
2014-Aug-27 02:33N 41°21' W 072°05'0 0.0
2014-Aug-27 01:33N 41°21' W 072°05'0 0.0
2014-Aug-27 00:33N 41°21' W 072°05'0 0.0
2014-Aug-26 23:33N 41°21' W 072°05'0 0.0
2014-Aug-26 22:33N 41°21' W 072°05'0 0.0
2014-Aug-26 21:33N 41°21' W 072°05'0 0.0
2014-Aug-26 20:33N 41°21' W 072°05'0 0.0
2014-Aug-26 19:33N 41°21' W 072°05'  

Dump ship's entire track history